sensor_id;sensor_type;location;lat;lon;timestamp;pressure;altitude;pressure_sealevel;temperature;humidity
26937;BME280;14495;48.116;11.676;2022-07-10T00:01:39;96040.13;;;18.79;100.00
26937;BME280;14495;48.116;11.676;2022-07-10T00:04:05;96037.25;;;18.82;100.00
26937;BME280;14495;48.116;11.676;2022-07-10T00:06:30;96041.28;;;18.86;100.00
26937;BME280;14495;48.116;11.676;2022-07-10T00:08:55;96041.63;;;18.72;100.00
26937;BME280;14495;48.116;11.676;2022-07-10T00:11:21;96046.03;;;18.62;100.00
26937;BME280;14495;48.116;11.676;2022-07-10T00:13:46;96052.19;;;18.62;100.00
26937;BME280;14495;48.116;11.676;2022-07-10T00:16:12;96051.56;;;18.49;100.00
26937;BME280;14495;48.116;11.676;2022-07-10T00:18:37;96047.72;;;18.63;100.00
26937;BME280;14495;48.116;11.676;2022-07-10T00:21:02;96045.34;;;18.60;100.00
26937;BME280;14495;48.116;11.676;2022-07-10T00:23:28;96043.94;;;18.55;100.00
26937;BME280;14495;48.116;11.676;2022-07-10T00:25:53;96051.88;;;18.55;100.00
26937;BME280;14495;48.116;11.676;2022-07-10T00:28:19;96050.94;;;18.57;100.00
26937;BME280;14495;48.116;11.676;2022-07-10T00:30:44;96059.66;;;18.47;100.00
26937;BME280;14495;48.116;11.676;2022-07-10T00:33:10;96058.81;;;18.47;100.00
26937;BME280;14495;48.116;11.676;2022-07-10T00:35:36;96071.84;;;18.29;100.00
26937;BME280;14495;48.116;11.676;2022-07-10T00:38:01;96077.06;;;18.19;100.00
26937;BME280;14495;48.116;11.676;2022-07-10T00:40:26;96073.78;;;18.27;100.00
26937;BME280;14495;48.116;11.676;2022-07-10T00:42:52;96075.94;;;17.91;100.00
26937;BME280;14495;48.116;11.676;2022-07-10T00:45:17;96070.31;;;17.84;100.00
26937;BME280;14495;48.116;11.676;2022-07-10T00:47:42;96075.13;;;17.58;100.00
26937;BME280;14495;48.116;11.676;2022-07-10T00:50:08;96083.56;;;17.52;100.00
26937;BME280;14495;48.116;11.676;2022-07-10T00:52:35;96072.59;;;17.35;100.00
26937;BME280;14495;48.116;11.676;2022-07-10T00:55:04;96081.63;;;17.33;100.00
26937;BME280;14495;48.116;11.676;2022-07-10T00:57:31;96097.50;;;17.22;100.00
26937;BME280;14495;48.116;11.676;2022-07-10T00:59:58;96090.81;;;17.06;100.00
26937;BME280;14495;48.116;11.676;2022-07-10T01:02:23;96078.00;;;17.02;100.00
26937;BME280;14495;48.116;11.676;2022-07-10T01:04:49;96065.63;;;17.02;100.00
26937;BME280;14495;48.116;11.676;2022-07-10T01:07:14;96058.91;;;16.98;100.00
26937;BME280;14495;48.116;11.676;2022-07-10T01:09:41;96061.72;;;16.85;100.00
26937;BME280;14495;48.116;11.676;2022-07-10T01:12:08;96069.63;;;16.85;100.00
26937;BME280;14495;48.116;11.676;2022-07-10T01:14:34;96071.06;;;16.67;100.00
26937;BME280;14495;48.116;11.676;2022-07-10T01:17:00;96084.03;;;16.70;100.00
26937;BME280;14495;48.116;11.676;2022-07-10T01:19:26;96077.78;;;16.59;100.00
26937;BME280;14495;48.116;11.676;2022-07-10T01:21:51;96075.97;;;16.60;100.00
26937;BME280;14495;48.116;11.676;2022-07-10T01:24:17;96068.69;;;16.52;100.00
26937;BME280;14495;48.116;11.676;2022-07-10T01:26:42;96082.34;;;16.57;100.00
26937;BME280;14495;48.116;11.676;2022-07-10T01:29:09;96084.16;;;16.46;100.00
26937;BME280;14495;48.116;11.676;2022-07-10T01:31:36;96068.78;;;16.51;100.00
26937;BME280;14495;48.116;11.676;2022-07-10T01:34:05;96069.41;;;16.43;100.00
26937;BME280;14495;48.116;11.676;2022-07-10T01:36:31;96069.41;;;16.32;100.00
26937;BME280;14495;48.116;11.676;2022-07-10T01:38:57;96065.84;;;16.21;100.00
26937;BME280;14495;48.116;11.676;2022-07-10T01:41:24;96053.59;;;16.32;100.00
26937;BME280;14495;48.116;11.676;2022-07-10T01:43:50;96051.91;;;16.42;100.00
26937;BME280;14495;48.116;11.676;2022-07-10T01:46:16;96040.91;;;16.26;100.00
26937;BME280;14495;48.116;11.676;2022-07-10T01:48:41;96045.19;;;16.27;100.00
26937;BME280;14495;48.116;11.676;2022-07-10T01:51:08;96050.72;;;16.35;100.00
26937;BME280;14495;48.116;11.676;2022-07-10T01:53:34;96046.41;;;16.22;100.00
26937;BME280;14495;48.116;11.676;2022-07-10T01:56:03;96051.06;;;16.30;100.00
26937;BME280;14495;48.116;11.676;2022-07-10T01:58:28;96053.13;;;16.38;100.00
26937;BME280;14495;48.116;11.676;2022-07-10T02:00:54;96041.13;;;16.34;100.00
26937;BME280;14495;48.116;11.676;2022-07-10T02:03:19;96033.22;;;16.34;100.00
26937;BME280;14495;48.116;11.676;2022-07-10T02:06:03;96038.03;;;16.40;100.00
26937;BME280;14495;48.116;11.676;2022-07-10T02:08:28;96033.81;;;16.26;100.00
26937;BME280;14495;48.116;11.676;2022-07-10T02:10:54;96030.94;;;16.40;100.00
26937;BME280;14495;48.116;11.676;2022-07-10T02:13:19;96027.59;;;16.27;100.00
26937;BME280;14495;48.116;11.676;2022-07-10T02:15:48;96026.13;;;16.23;100.00
26937;BME280;14495;48.116;11.676;2022-07-10T02:18:14;96017.97;;;16.37;100.00
26937;BME280;14495;48.116;11.676;2022-07-10T02:20:40;96020.72;;;16.47;100.00
26937;BME280;14495;48.116;11.676;2022-07-10T02:23:05;96024.69;;;16.53;100.00
26937;BME280;14495;48.116;11.676;2022-07-10T02:25:32;96021.94;;;16.43;100.00
26937;BME280;14495;48.116;11.676;2022-07-10T02:27:57;96023.84;;;16.41;100.00
26937;BME280;14495;48.116;11.676;2022-07-10T02:30:23;96031.66;;;16.31;100.00
26937;BME280;14495;48.116;11.676;2022-07-10T02:32:48;96024.25;;;16.36;100.00
26937;BME280;14495;48.116;11.676;2022-07-10T02:35:13;96024.97;;;16.16;100.00
26937;BME280;14495;48.116;11.676;2022-07-10T02:37:39;96018.84;;;16.38;100.00
26937;BME280;14495;48.116;11.676;2022-07-10T02:40:04;96013.19;;;16.42;100.00
26937;BME280;14495;48.116;11.676;2022-07-10T02:42:30;96016.44;;;16.35;100.00
26937;BME280;14495;48.116;11.676;2022-07-10T02:44:55;96016.78;;;16.41;100.00
26937;BME280;14495;48.116;11.676;2022-07-10T02:47:20;96027.69;;;16.37;100.00
26937;BME280;14495;48.116;11.676;2022-07-10T02:49:46;96020.03;;;16.34;100.00
26937;BME280;14495;48.116;11.676;2022-07-10T02:52:11;96016.31;;;16.36;100.00
26937;BME280;14495;48.116;11.676;2022-07-10T02:54:37;96021.72;;;16.23;100.00
26937;BME280;14495;48.116;11.676;2022-07-10T02:57:02;96024.72;;;16.19;100.00
26937;BME280;14495;48.116;11.676;2022-07-10T02:59:28;96029.38;;;16.15;100.00
26937;BME280;14495;48.116;11.676;2022-07-10T03:01:53;96013.69;;;16.14;100.00
26937;BME280;14495;48.116;11.676;2022-07-10T03:04:18;96030.69;;;15.87;100.00
26937;BME280;14495;48.116;11.676;2022-07-10T03:06:44;96022.91;;;15.97;100.00
26937;BME280;14495;48.116;11.676;2022-07-10T03:09:09;96026.84;;;15.91;100.00
26937;BME280;14495;48.116;11.676;2022-07-10T03:11:34;96027.22;;;15.98;100.00
26937;BME280;14495;48.116;11.676;2022-07-10T03:14:00;96029.16;;;15.96;100.00
26937;BME280;14495;48.116;11.676;2022-07-10T03:16:25;96024.72;;;15.96;100.00
26937;BME280;14495;48.116;11.676;2022-07-10T03:18:51;96026.53;;;16.07;100.00
26937;BME280;14495;48.116;11.676;2022-07-10T03:21:16;96022.69;;;16.00;100.00
26937;BME280;14495;48.116;11.676;2022-07-10T03:23:41;96029.66;;;16.12;100.00
26937;BME280;14495;48.116;11.676;2022-07-10T03:26:06;96014.28;;;16.17;100.00
26937;BME280;14495;48.116;11.676;2022-07-10T03:28:33;96013.19;;;15.86;100.00
26937;BME280;14495;48.116;11.676;2022-07-10T03:30:58;96018.56;;;15.73;100.00
26937;BME280;14495;48.116;11.676;2022-07-10T03:33:24;96015.97;;;15.84;100.00
26937;BME280;14495;48.116;11.676;2022-07-10T03:35:49;96026.75;;;15.81;100.00
26937;BME280;14495;48.116;11.676;2022-07-10T03:38:14;96021.25;;;15.84;100.00
26937;BME280;14495;48.116;11.676;2022-07-10T03:40:39;96020.97;;;15.88;100.00
26937;BME280;14495;48.116;11.676;2022-07-10T03:43:05;96025.19;;;15.90;100.00
26937;BME280;14495;48.116;11.676;2022-07-10T03:45:30;96027.72;;;15.92;100.00
26937;BME280;14495;48.116;11.676;2022-07-10T03:47:56;96020.63;;;15.81;100.00
26937;BME280;14495;48.116;11.676;2022-07-10T03:50:21;96029.16;;;15.96;100.00
26937;BME280;14495;48.116;11.676;2022-07-10T03:52:47;96025.09;;;15.92;100.00
26937;BME280;14495;48.116;11.676;2022-07-10T03:55:12;96029.25;;;15.83;100.00
26937;BME280;14495;48.116;11.676;2022-07-10T03:57:37;96029.84;;;15.87;100.00
26937;BME280;14495;48.116;11.676;2022-07-10T04:00:23;96020.53;;;15.82;100.00
26937;BME280;14495;48.116;11.676;2022-07-10T04:03:03;96016.81;;;15.96;100.00
26937;BME280;14495;48.116;11.676;2022-07-10T04:05:29;96023.88;;;15.84;100.00
26937;BME280;14495;48.116;11.676;2022-07-10T04:07:55;96025.41;;;15.87;100.00
26937;BME280;14495;48.116;11.676;2022-07-10T04:10:22;96021.69;;;15.78;100.00
26937;BME280;14495;48.116;11.676;2022-07-10T04:12:48;96025.78;;;15.82;100.00
26937;BME280;14495;48.116;11.676;2022-07-10T04:15:14;96034.41;;;15.84;100.00
26937;BME280;14495;48.116;11.676;2022-07-10T04:17:39;96028.16;;;15.85;100.00
26937;BME280;14495;48.116;11.676;2022-07-10T04:20:05;96030.34;;;15.92;100.00
26937;BME280;14495;48.116;11.676;2022-07-10T04:22:31;96030.09;;;15.83;100.00
26937;BME280;14495;48.116;11.676;2022-07-10T04:24:56;96028.88;;;15.76;100.00
26937;BME280;14495;48.116;11.676;2022-07-10T04:27:22;96022.69;;;16.00;100.00
26937;BME280;14495;48.116;11.676;2022-07-10T04:29:47;96016.56;;;16.11;100.00
26937;BME280;14495;48.116;11.676;2022-07-10T04:32:15;96020.66;;;15.92;100.00
26937;BME280;14495;48.116;11.676;2022-07-10T04:34:40;96015.72;;;15.99;100.00
26937;BME280;14495;48.116;11.676;2022-07-10T04:37:06;96011.41;;;15.98;100.00
26937;BME280;14495;48.116;11.676;2022-07-10T04:39:33;96015.97;;;16.07;100.00
26937;BME280;14495;48.116;11.676;2022-07-10T04:41:58;96019.31;;;16.20;100.00
26937;BME280;14495;48.116;11.676;2022-07-10T04:44:24;96023.16;;;16.39;100.00
26937;BME280;14495;48.116;11.676;2022-07-10T04:46:49;96016.56;;;16.33;100.00
26937;BME280;14495;48.116;11.676;2022-07-10T04:49:14;96021.84;;;16.33;100.00
26937;BME280;14495;48.116;11.676;2022-07-10T04:51:40;96016.44;;;16.35;100.00
26937;BME280;14495;48.116;11.676;2022-07-10T04:54:06;96026.03;;;16.24;100.00
26937;BME280;14495;48.116;11.676;2022-07-10T04:56:31;96031.19;;;16.26;100.00
26937;BME280;14495;48.116;11.676;2022-07-10T04:58:56;96031.56;;;16.33;100.00
26937;BME280;14495;48.116;11.676;2022-07-10T05:01:22;96032.28;;;16.23;100.00
26937;BME280;14495;48.116;11.676;2022-07-10T05:03:47;96035.84;;;16.11;100.00
26937;BME280;14495;48.116;11.676;2022-07-10T05:06:13;96039.44;;;15.99;100.00
26937;BME280;14495;48.116;11.676;2022-07-10T05:08:38;96036.84;;;16.10;100.00
26937;BME280;14495;48.116;11.676;2022-07-10T05:11:03;96038.97;;;16.39;100.00
26937;BME280;14495;48.116;11.676;2022-07-10T05:13:29;96045.44;;;16.35;100.00
26937;BME280;14495;48.116;11.676;2022-07-10T05:15:54;96042.19;;;16.42;100.00
26937;BME280;14495;48.116;11.676;2022-07-10T05:18:19;96048.22;;;16.22;100.00
26937;BME280;14495;48.116;11.676;2022-07-10T05:20:45;96047.22;;;16.00;100.00
26937;BME280;14495;48.116;11.676;2022-07-10T05:23:13;96051.56;;;16.13;100.00
26937;BME280;14495;48.116;11.676;2022-07-10T05:25:38;96049.88;;;16.12;100.00
26937;BME280;14495;48.116;11.676;2022-07-10T05:28:04;96052.28;;;16.15;100.00
26937;BME280;14495;48.116;11.676;2022-07-10T05:30:31;96052.16;;;16.16;100.00
26937;BME280;14495;48.116;11.676;2022-07-10T05:32:57;96042.94;;;16.22;100.00
26937;BME280;14495;48.116;11.676;2022-07-10T05:35:22;96044.38;;;16.15;100.00
26937;BME280;14495;48.116;11.676;2022-07-10T05:37:47;96050.34;;;16.28;100.00
26937;BME280;14495;48.116;11.676;2022-07-10T05:40:13;96052.38;;;16.36;100.00
26937;BME280;14495;48.116;11.676;2022-07-10T05:42:38;96056.72;;;16.26;100.00
26937;BME280;14495;48.116;11.676;2022-07-10T05:45:04;96054.06;;;16.37;100.00
26937;BME280;14495;48.116;11.676;2022-07-10T05:47:31;96062.47;;;16.19;100.00
26937;BME280;14495;48.116;11.676;2022-07-10T05:49:56;96052.03;;;16.29;100.00
26937;BME280;14495;48.116;11.676;2022-07-10T05:52:21;96048.81;;;16.37;100.00
26937;BME280;14495;48.116;11.676;2022-07-10T05:54:46;96056.94;;;16.22;100.00
26937;BME280;14495;48.116;11.676;2022-07-10T05:57:12;96055.75;;;16.15;100.00
26937;BME280;14495;48.116;11.676;2022-07-10T05:59:37;96055.03;;;16.24;100.00
26937;BME280;14495;48.116;11.676;2022-07-10T06:02:03;96053.38;;;16.23;100.00
26937;BME280;14495;48.116;11.676;2022-07-10T06:04:28;96056.94;;;16.00;100.00
26937;BME280;14495;48.116;11.676;2022-07-10T06:06:53;96056.59;;;16.16;100.00
26937;BME280;14495;48.116;11.676;2022-07-10T06:09:19;96056.22;;;16.43;100.00
26937;BME280;14495;48.116;11.676;2022-07-10T06:11:44;96059.69;;;16.66;100.00
26937;BME280;14495;48.116;11.676;2022-07-10T06:14:11;96059.28;;;17.05;100.00
26937;BME280;14495;48.116;11.676;2022-07-10T06:16:37;96052.72;;;17.20;100.00
26937;BME280;14495;48.116;11.676;2022-07-10T06:19:02;96054.19;;;17.13;100.00
26937;BME280;14495;48.116;11.676;2022-07-10T06:21:28;96061.00;;;17.15;100.00
26937;BME280;14495;48.116;11.676;2022-07-10T06:23:53;96063.69;;;17.04;100.00
26937;BME280;14495;48.116;11.676;2022-07-10T06:26:18;96064.78;;;17.02;100.00
26937;BME280;14495;48.116;11.676;2022-07-10T06:28:44;96063.28;;;17.20;100.00
26937;BME280;14495;48.116;11.676;2022-07-10T06:31:09;96063.28;;;17.20;100.00
26937;BME280;14495;48.116;11.676;2022-07-10T06:33:34;96062.06;;;16.92;100.00
26937;BME280;14495;48.116;11.676;2022-07-10T06:36:03;96067.22;;;17.26;100.00
26937;BME280;14495;48.116;11.676;2022-07-10T06:38:28;96058.47;;;17.25;100.00
26937;BME280;14495;48.116;11.676;2022-07-10T06:40:54;96061.78;;;17.38;100.00
26937;BME280;14495;48.116;11.676;2022-07-10T06:43:19;96058.69;;;17.33;100.00
26937;BME280;14495;48.116;11.676;2022-07-10T06:45:45;96054.31;;;17.44;100.00
26937;BME280;14495;48.116;11.676;2022-07-10T06:48:10;96061.66;;;17.40;100.00
26937;BME280;14495;48.116;11.676;2022-07-10T06:50:37;96049.28;;;17.41;100.00
26937;BME280;14495;48.116;11.676;2022-07-10T06:53:03;96058.66;;;17.66;100.00
26937;BME280;14495;48.116;11.676;2022-07-10T06:55:29;96054.66;;;17.92;100.00
26937;BME280;14495;48.116;11.676;2022-07-10T06:57:55;96050.03;;;18.15;100.00
26937;BME280;14495;48.116;11.676;2022-07-10T07:00:21;96047.84;;;17.78;100.00
26937;BME280;14495;48.116;11.676;2022-07-10T07:02:46;96056.63;;;17.58;100.00
26937;BME280;14495;48.116;11.676;2022-07-10T07:05:12;96047.69;;;17.49;100.00
26937;BME280;14495;48.116;11.676;2022-07-10T07:07:38;96055.69;;;17.27;100.00
26937;BME280;14495;48.116;11.676;2022-07-10T07:10:04;96054.44;;;17.63;100.00
26937;BME280;14495;48.116;11.676;2022-07-10T07:12:30;96055.50;;;17.39;100.00
26937;BME280;14495;48.116;11.676;2022-07-10T07:14:55;96062.94;;;17.46;100.00
26937;BME280;14495;48.116;11.676;2022-07-10T07:17:21;96062.31;;;17.32;100.00
26937;BME280;14495;48.116;11.676;2022-07-10T07:19:48;96061.97;;;17.47;100.00
26937;BME280;14495;48.116;11.676;2022-07-10T07:22:32;96067.97;;;17.49;100.00
26937;BME280;14495;48.116;11.676;2022-07-10T07:25:16;96074.63;;;17.32;100.00
26937;BME280;14495;48.116;11.676;2022-07-10T07:27:41;96077.28;;;17.64;100.00
26937;BME280;14495;48.116;11.676;2022-07-10T07:30:10;96076.69;;;17.82;100.00
26937;BME280;14495;48.116;11.676;2022-07-10T07:32:36;96083.97;;;17.68;100.00
26937;BME280;14495;48.116;11.676;2022-07-10T07:35:02;96093.44;;;17.50;100.00
26937;BME280;14495;48.116;11.676;2022-07-10T07:40:07;96088.91;;;17.41;100.00
26937;BME280;14495;48.116;11.676;2022-07-10T07:42:33;96088.63;;;17.11;100.00
26937;BME280;14495;48.116;11.676;2022-07-10T07:44:58;96084.47;;;17.09;100.00
26937;BME280;14495;48.116;11.676;2022-07-10T07:47:24;96103.34;;;17.36;100.00
26937;BME280;14495;48.116;11.676;2022-07-10T07:49:49;96091.84;;;17.58;100.00
26937;BME280;14495;48.116;11.676;2022-07-10T07:52:14;96090.03;;;17.59;100.00
26937;BME280;14495;48.116;11.676;2022-07-10T07:54:40;96099.31;;;17.53;100.00
26937;BME280;14495;48.116;11.676;2022-07-10T07:57:06;96092.03;;;17.67;100.00
26937;BME280;14495;48.116;11.676;2022-07-10T07:59:31;96092.06;;;18.09;100.00
26937;BME280;14495;48.116;11.676;2022-07-10T08:01:57;96082.78;;;18.45;100.00
26937;BME280;14495;48.116;11.676;2022-07-10T08:04:22;96086.88;;;19.00;100.00
26937;BME280;14495;48.116;11.676;2022-07-10T08:06:47;96085.84;;;18.50;100.00
26937;BME280;14495;48.116;11.676;2022-07-10T08:09:13;96087.19;;;19.16;100.00
26937;BME280;14495;48.116;11.676;2022-07-10T08:11:38;96091.66;;;19.16;100.00
26937;BME280;14495;48.116;11.676;2022-07-10T08:14:04;96095.13;;;19.16;100.00
26937;BME280;14495;48.116;11.676;2022-07-10T08:16:29;96093.59;;;19.43;100.00
26937;BME280;14495;48.116;11.676;2022-07-10T08:18:54;96099.19;;;19.49;100.00
26937;BME280;14495;48.116;11.676;2022-07-10T08:21:20;96093.09;;;18.89;100.00
26937;BME280;14495;48.116;11.676;2022-07-10T08:23:47;96091.59;;;18.96;100.00
26937;BME280;14495;48.116;11.676;2022-07-10T08:26:12;96081.81;;;18.87;100.00
26937;BME280;14495;48.116;11.676;2022-07-10T08:28:38;96085.22;;;19.38;100.00
26937;BME280;14495;48.116;11.676;2022-07-10T08:31:03;96088.13;;;18.96;100.00
26937;BME280;14495;48.116;11.676;2022-07-10T08:33:29;96089.34;;;18.51;100.00
26937;BME280;14495;48.116;11.676;2022-07-10T08:35:54;96084.88;;;18.82;100.00
26937;BME280;14495;48.116;11.676;2022-07-10T08:38:24;96073.38;;;19.61;100.00
26937;BME280;14495;48.116;11.676;2022-07-10T08:40:49;96072.69;;;19.49;100.00
26937;BME280;14495;48.116;11.676;2022-07-10T08:43:15;96070.88;;;19.40;100.00
26937;BME280;14495;48.116;11.676;2022-07-10T08:45:41;96078.13;;;18.78;100.00
26937;BME280;14495;48.116;11.676;2022-07-10T08:48:07;96073.25;;;19.14;100.00
26937;BME280;14495;48.116;11.676;2022-07-10T08:50:38;96069.03;;;19.89;100.00
26937;BME280;14495;48.116;11.676;2022-07-10T08:53:13;96068.78;;;19.93;86.00
26937;BME280;14495;48.116;11.676;2022-07-10T08:55:41;96070.34;;;19.76;99.05
26937;BME280;14495;48.116;11.676;2022-07-10T08:58:08;96074.94;;;19.35;100.00
26937;BME280;14495;48.116;11.676;2022-07-10T09:00:34;96079.81;;;18.79;100.00
26937;BME280;14495;48.116;11.676;2022-07-10T09:02:59;96080.69;;;18.18;100.00
26937;BME280;14495;48.116;11.676;2022-07-10T09:05:26;96085.22;;;18.37;100.00
26937;BME280;14495;48.116;11.676;2022-07-10T09:07:55;96080.78;;;19.48;100.00
26937;BME280;14495;48.116;11.676;2022-07-10T09:10:25;96071.53;;;20.11;84.35
26937;BME280;14495;48.116;11.676;2022-07-10T09:13:00;96073.59;;;20.64;85.18
26937;BME280;14495;48.116;11.676;2022-07-10T09:15:29;96071.28;;;20.79;77.72
26937;BME280;14495;48.116;11.676;2022-07-10T09:18:01;96080.97;;;20.33;88.27
26937;BME280;14495;48.116;11.676;2022-07-10T09:20:38;96076.88;;;19.52;97.05
26937;BME280;14495;48.116;11.676;2022-07-10T09:23:16;96079.50;;;19.13;100.00
26937;BME280;14495;48.116;11.676;2022-07-10T09:25:50;96078.66;;;19.12;100.00
26937;BME280;14495;48.116;11.676;2022-07-10T09:28:18;96070.75;;;19.51;100.00
26937;BME280;14495;48.116;11.676;2022-07-10T09:30:43;96075.03;;;20.48;92.91
26937;BME280;14495;48.116;11.676;2022-07-10T09:36:08;96067.81;;;21.78;69.42
26937;BME280;14495;48.116;11.676;2022-07-10T09:38:55;96076.69;;;21.33;64.89
26937;BME280;14495;48.116;11.676;2022-07-10T09:41:27;96071.81;;;21.28;64.93
26937;BME280;14495;48.116;11.676;2022-07-10T09:46:23;96068.13;;;22.88;56.96
26937;BME280;14495;48.116;11.676;2022-07-10T09:49:05;96069.25;;;22.77;54.91
26937;BME280;14495;48.116;11.676;2022-07-10T09:51:31;96078.28;;;21.97;58.52
26937;BME280;14495;48.116;11.676;2022-07-10T09:54:00;96068.88;;;21.31;57.56
26937;BME280;14495;48.116;11.676;2022-07-10T09:56:28;96074.25;;;20.38;59.40
26937;BME280;14495;48.116;11.676;2022-07-10T09:58:59;96062.63;;;21.76;56.62
26937;BME280;14495;48.116;11.676;2022-07-10T10:01:27;96060.78;;;22.82;54.21
26937;BME280;14495;48.116;11.676;2022-07-10T10:03:53;96055.22;;;24.49;50.96
26937;BME280;14495;48.116;11.676;2022-07-10T10:06:19;96054.47;;;23.58;49.71
26937;BME280;14495;48.116;11.676;2022-07-10T10:08:58;96063.13;;;22.24;52.91
26937;BME280;14495;48.116;11.676;2022-07-10T10:11:27;96063.16;;;21.80;53.67
26937;BME280;14495;48.116;11.676;2022-07-10T10:13:53;96066.47;;;22.87;52.89
26937;BME280;14495;48.116;11.676;2022-07-10T10:16:20;96060.31;;;22.86;51.75
26937;BME280;14495;48.116;11.676;2022-07-10T10:18:46;96068.44;;;22.42;50.83
26937;BME280;14495;48.116;11.676;2022-07-10T10:21:30;96066.00;;;23.83;45.93
26937;BME280;14495;48.116;11.676;2022-07-10T10:23:56;96052.28;;;24.27;46.00
26937;BME280;14495;48.116;11.676;2022-07-10T10:26:22;96050.91;;;24.56;45.65
26937;BME280;14495;48.116;11.676;2022-07-10T10:28:50;96050.56;;;25.22;44.77
26937;BME280;14495;48.116;11.676;2022-07-10T10:31:16;96062.13;;;23.37;47.48
26937;BME280;14495;48.116;11.676;2022-07-10T10:33:44;96057.41;;;22.11;49.95
26937;BME280;14495;48.116;11.676;2022-07-10T10:36:12;96044.59;;;22.32;49.91
26937;BME280;14495;48.116;11.676;2022-07-10T10:39:14;96044.91;;;23.06;46.83
26937;BME280;14495;48.116;11.676;2022-07-10T10:41:46;96050.44;;;22.36;47.57
26937;BME280;14495;48.116;11.676;2022-07-10T10:49:18;96038.47;;;23.58;45.89
26937;BME280;14495;48.116;11.676;2022-07-10T10:54:26;96031.94;;;26.21;42.96
26937;BME280;14495;48.116;11.676;2022-07-10T10:57:11;96041.63;;;26.37;43.37
26937;BME280;14495;48.116;11.676;2022-07-10T10:59:51;96040.59;;;26.08;39.57
26937;BME280;14495;48.116;11.676;2022-07-10T11:02:26;96027.94;;;26.02;39.83
26937;BME280;14495;48.116;11.676;2022-07-10T11:05:16;96034.69;;;25.52;41.96
26937;BME280;14495;48.116;11.676;2022-07-10T11:08:03;96042.44;;;23.29;46.55
26937;BME280;14495;48.116;11.676;2022-07-10T11:13:00;96042.88;;;21.79;49.26
26937;BME280;14495;48.116;11.676;2022-07-10T11:15:27;96037.13;;;24.03;45.27
26937;BME280;14495;48.116;11.676;2022-07-10T11:18:07;96037.00;;;24.61;44.67
26937;BME280;14495;48.116;11.676;2022-07-10T11:20:55;96019.47;;;26.58;40.46
26937;BME280;14495;48.116;11.676;2022-07-10T11:23:27;96029.44;;;25.81;41.26
26937;BME280;14495;48.116;11.676;2022-07-10T11:26:07;96027.97;;;23.57;45.53
26937;BME280;14495;48.116;11.676;2022-07-10T11:28:52;96035.97;;;22.47;45.85
26937;BME280;14495;48.116;11.676;2022-07-10T11:31:20;96041.06;;;21.61;48.19
26937;BME280;14495;48.116;11.676;2022-07-10T11:33:47;96040.97;;;21.45;50.32
26937;BME280;14495;48.116;11.676;2022-07-10T11:36:20;96042.09;;;22.13;49.42
26937;BME280;14495;48.116;11.676;2022-07-10T11:39:15;96044.84;;;22.21;49.68
26937;BME280;14495;48.116;11.676;2022-07-10T11:41:45;96039.28;;;21.62;49.85
26937;BME280;14495;48.116;11.676;2022-07-10T11:44:15;96037.69;;;21.95;49.54
26937;BME280;14495;48.116;11.676;2022-07-10T11:46:46;96032.31;;;23.49;46.55
26937;BME280;14495;48.116;11.676;2022-07-10T11:49:14;96040.13;;;23.76;44.87
26937;BME280;14495;48.116;11.676;2022-07-10T11:51:41;96032.19;;;25.73;42.37
26937;BME280;14495;48.116;11.676;2022-07-10T11:54:09;96028.66;;;26.64;40.06
26937;BME280;14495;48.116;11.676;2022-07-10T11:56:37;96026.16;;;25.94;41.51
26937;BME280;14495;48.116;11.676;2022-07-10T11:59:08;96039.78;;;24.76;42.67
26937;BME280;14495;48.116;11.676;2022-07-10T12:01:42;96024.25;;;25.11;43.05
26937;BME280;14495;48.116;11.676;2022-07-10T12:04:09;96035.19;;;25.32;43.92
26937;BME280;14495;48.116;11.676;2022-07-10T12:06:36;96029.38;;;24.33;45.01
26937;BME280;14495;48.116;11.676;2022-07-10T12:09:24;96028.13;;;25.08;42.49
26937;BME280;14495;48.116;11.676;2022-07-10T12:12:05;96023.84;;;25.22;43.41
26937;BME280;14495;48.116;11.676;2022-07-10T12:14:32;96033.72;;;24.90;42.09
26937;BME280;14495;48.116;11.676;2022-07-10T12:16:59;96025.72;;;24.82;42.38
26937;BME280;14495;48.116;11.676;2022-07-10T12:19:38;96028.81;;;24.62;43.06
26937;BME280;14495;48.116;11.676;2022-07-10T12:22:07;96034.00;;;24.64;43.98
26937;BME280;14495;48.116;11.676;2022-07-10T12:24:32;96031.31;;;23.75;43.58
26937;BME280;14495;48.116;11.676;2022-07-10T12:26:58;96034.50;;;23.95;42.98
26937;BME280;14495;48.116;11.676;2022-07-10T12:29:28;96031.28;;;23.67;44.46
26937;BME280;14495;48.116;11.676;2022-07-10T12:31:59;96034.56;;;23.11;45.44
26937;BME280;14495;48.116;11.676;2022-07-10T12:34:38;96022.94;;;23.21;45.71
26937;BME280;14495;48.116;11.676;2022-07-10T12:37:13;96036.03;;;22.97;46.73
26937;BME280;14495;48.116;11.676;2022-07-10T12:39:50;96030.88;;;22.53;46.50
26937;BME280;14495;48.116;11.676;2022-07-10T12:42:30;96040.34;;;21.95;48.65
26937;BME280;14495;48.116;11.676;2022-07-10T12:45:13;96032.97;;;21.89;48.66
26937;BME280;14495;48.116;11.676;2022-07-10T12:47:48;96028.94;;;22.29;48.02
26937;BME280;14495;48.116;11.676;2022-07-10T12:50:15;96037.38;;;22.25;48.09
26937;BME280;14495;48.116;11.676;2022-07-10T12:52:41;96036.94;;;22.37;47.47
26937;BME280;14495;48.116;11.676;2022-07-10T12:57:58;96042.19;;;22.98;46.76
26937;BME280;14495;48.116;11.676;2022-07-10T13:00:34;96038.78;;;22.71;47.28
26937;BME280;14495;48.116;11.676;2022-07-10T13:05:36;96041.66;;;22.17;48.23
26937;BME280;14495;48.116;11.676;2022-07-10T13:10:34;96044.00;;;22.97;46.22
26937;BME280;14495;48.116;11.676;2022-07-10T13:13:02;96044.66;;;23.83;44.79